Time;durP1;ratioP1;P1;durP2;ratioP2;P2;SDS_P1;SDS_P2;PMS_P1;PMS_P2;Temp;Humidity;BMP_temperature;BMP_pressure;BME280_temperature;BME280_humidity;BME280_pressure;Samples;Min_cycle;Max_cycle;Signal;HPM_P1;HPM_P2
2021/12/28 00:01:35;;;;;;;31.62;19.70;;;;;;;-4.89;70.18;99816.69;1749107;82;21080;-42
2021/12/28 00:04:02;;;;;;;31.35;18.95;;;;;;;-4.52;70.22;99866.30;1748820;82;22364;-43
2021/12/28 00:06:28;;;;;;;31.42;18.95;;;;;;;-4.57;70.32;99865.73;1748600;82;21010;-42
2021/12/28 00:08:55;;;;;;;35.48;20.05;;;;;;;-4.52;70.11;99866.30;1748638;82;20977;-43
2021/12/28 00:11:21;;;;;;;28.23;19.12;;;;;;;-4.54;70.17;99872.36;1749199;82;20926;-42
2021/12/28 00:13:48;;;;;;;31.62;20.90;;;;;;;-4.52;70.10;99866.30;1748843;82;20989;-42
2021/12/28 00:18:45;;;;;;;36.70;23.32;;;;;;;-4.51;70.26;99874.52;1748688;82;20993;-42
2021/12/28 00:21:11;;;;;;;37.88;22.90;;;;;;;-4.53;70.35;99880.58;1749059;82;21628;-42
2021/12/28 00:23:40;;;;;;;37.53;23.50;;;;;;;-4.49;70.61;99884.31;1748899;82;21024;-42
2021/12/28 00:26:13;;;;;;;39.10;24.07;;;;;;;-4.43;70.36;99882.02;1748731;82;21021;-42
2021/12/28 00:28:43;;;;;;;40.08;24.55;;;;;;;-4.45;70.54;99884.89;1748841;81;20926;-42
2021/12/28 00:31:11;;;;;;;43.87;25.27;;;;;;;-4.42;70.40;99884.94;1748788;82;20953;-43
2021/12/28 00:33:38;;;;;;;39.55;23.95;;;;;;;-4.45;70.36;99883.57;1748693;82;20938;-42
2021/12/28 00:36:05;;;;;;;40.05;24.63;;;;;;;-4.45;70.57;99881.45;1748837;82;21063;-43
2021/12/28 00:38:32;;;;;;;39.50;25.25;;;;;;;-4.39;70.42;99877.30;1748632;82;21522;-43
2021/12/28 00:41:01;;;;;;;37.73;24.07;;;;;;;-4.41;70.39;99872.80;1748842;81;21137;-42
2021/12/28 00:43:28;;;;;;;38.08;23.10;;;;;;;-4.40;70.43;99866.95;1748631;81;21546;-43
2021/12/28 00:45:56;;;;;;;36.70;22.22;;;;;;;-4.45;70.47;99866.38;1749124;81;22042;-42
2021/12/28 00:48:22;;;;;;;30.77;20.60;;;;;;;-4.50;70.57;99866.31;1748675;82;21614;-42
2021/12/28 00:50:50;;;;;;;32.60;19.92;;;;;;;-4.48;70.39;99863.43;1748762;81;21008;-43
2021/12/28 00:53:17;;;;;;;32.70;20.25;;;;;;;-4.53;70.28;99857.56;1748540;82;21150;-42
2021/12/28 00:55:44;;;;;;;32.03;21.33;;;;;;;-4.49;70.24;99869.77;1748958;82;21025;-42
2021/12/28 00:58:10;;;;;;;31.15;19.30;;;;;;;-4.56;70.10;99863.88;1748747;82;21804;-42
2021/12/28 01:00:38;;;;;;;29.63;19.27;;;;;;;-4.59;70.18;99855.10;1748924;81;21471;-42
2021/12/28 01:03:06;;;;;;;30.35;19.23;;;;;;;-4.57;70.22;99860.95;1748673;82;21037;-42
2021/12/28 01:08:18;;;;;;;31.30;19.70;;;;;;;-4.60;70.07;99856.95;1775073;79;22660;-41
2021/12/28 01:10:49;;;;;;;29.48;19.77;;;;;;;-4.71;70.29;99853.12;1755522;80;21523;-41
2021/12/28 01:13:17;;;;;;;27.80;18.65;;;;;;;-4.73;70.17;99847.27;1756735;81;21007;-41
2021/12/28 01:15:44;;;;;;;29.02;18.73;;;;;;;-4.71;70.02;99854.45;1757003;81;20925;-41
2021/12/28 01:18:12;;;;;;;32.88;20.12;;;;;;;-4.67;70.04;99854.23;1756790;81;21008;-41
2021/12/28 01:20:40;;;;;;;31.10;20.50;;;;;;;-4.64;69.96;99855.84;1757005;81;20988;-41
2021/12/28 01:23:07;;;;;;;29.07;19.35;;;;;;;-4.63;70.08;99852.68;1757409;81;21498;-41
2021/12/28 01:25:34;;;;;;;31.97;20.50;;;;;;;-4.56;69.98;99858.07;1756867;81;21108;-41
2021/12/28 01:28:01;;;;;;;29.23;19.80;;;;;;;-4.52;70.10;99845.94;1757190;81;20968;-41
2021/12/28 01:30:28;;;;;;;33.30;20.17;;;;;;;-4.46;70.18;99846.80;1756825;81;22153;-41
2021/12/28 01:32:58;;;;;;;34.13;21.68;;;;;;;-4.36;69.79;99850.07;1757003;81;21052;-41
2021/12/28 01:35:25;;;;;;;30.87;19.97;;;;;;;-4.45;69.86;99844.41;1756903;81;21534;-41
2021/12/28 01:37:51;;;;;;;29.45;19.70;;;;;;;-4.46;69.90;99838.86;1757291;81;21131;-41
2021/12/28 01:40:26;;;;;;;31.40;20.55;;;;;;;-4.47;69.91;99839.90;1756862;81;20936;-41
2021/12/28 01:43:13;;;;;;;30.62;20.72;;;;;;;-4.44;70.09;99834.90;1757006;81;21491;-41
2021/12/28 01:45:53;;;;;;;30.85;20.75;;;;;;;-4.41;70.06;99833.62;1756946;81;21028;-41
2021/12/28 01:48:32;;;;;;;25.65;16.35;;;;;;;-4.41;69.97;99844.20;1757305;81;21083;-41
2021/12/28 01:51:09;;;;;;;28.47;18.85;;;;;;;-4.36;70.03;99852.20;1757008;81;21511;-41
2021/12/28 01:53:36;;;;;;;31.65;19.90;;;;;;;-4.34;70.09;99857.22;1756926;81;21535;-41
2021/12/28 01:56:09;;;;;;;27.95;19.75;;;;;;;-4.29;70.25;99851.98;1757058;81;21001;-41
2021/12/28 01:58:35;;;;;;;29.77;19.37;;;;;;;-4.22;70.07;99852.06;1757063;81;20977;-41
2021/12/28 02:01:04;;;;;;;30.62;19.12;;;;;;;-4.15;69.88;99853.16;1756855;81;21064;-41
2021/12/28 02:03:32;;;;;;;35.45;21.17;;;;;;;-4.10;69.60;99855.34;1757075;81;21765;-41
2021/12/28 02:05:59;;;;;;;30.70;19.75;;;;;;;-4.05;69.55;99851.94;1756910;81;20917;-41
2021/12/28 02:08:26;;;;;;;37.67;20.92;;;;;;;-3.99;69.54;99847.77;1749673;81;20964;-41
2021/12/28 02:10:54;;;;;;;33.83;21.23;;;;;;;-3.97;69.24;99848.30;1777244;80;21076;-41
2021/12/28 02:13:21;;;;;;;31.52;20.45;;;;;;;-4.01;69.06;99833.97;1780526;80;21024;-41
2021/12/28 02:15:48;;;;;;;29.55;19.32;;;;;;;-4.02;69.16;99831.59;1780267;80;21362;-41
2021/12/28 02:18:18;;;;;;;27.25;18.82;;;;;;;-4.06;68.97;99832.59;1779866;80;21049;-41
2021/12/28 02:20:45;;;;;;;;;;;;;;;-4.10;69.00;99830.19;1782448;80;21024;-41
2021/12/28 02:23:12;;;;;;;30.92;17.52;;;;;;;-4.15;68.79;99826.69;1779596;80;20172;-41
2021/12/28 02:25:41;;;;;;;26.70;15.75;;;;;;;-4.29;68.92;99824.98;1779643;80;20992;-41
2021/12/28 02:28:09;;;;;;;23.85;15.23;;;;;;;-4.31;68.91;99812.55;1780120;80;21136;-41
2021/12/28 02:30:37;;;;;;;22.25;14.93;;;;;;;-4.32;68.85;99822.05;1779975;80;21519;-41
2021/12/28 02:33:04;;;;;;;24.52;15.10;;;;;;;-4.36;68.89;99816.98;1779858;80;21530;-41
2021/12/28 02:35:31;;;;;;;24.00;15.00;;;;;;;-4.34;68.86;99801.12;1779689;80;21076;-41
2021/12/28 02:37:57;;;;;;;23.10;14.47;;;;;;;-4.35;68.79;99797.39;1773808;80;20961;-42
2021/12/28 02:40:28;;;;;;;26.02;14.85;;;;;;;-4.40;68.78;99795.50;1764415;81;21507;-41
2021/12/28 02:42:57;;;;;;;23.25;15.40;;;;;;;-4.42;68.74;99806.88;1764487;81;21595;-41
2021/12/28 02:45:26;;;;;;;27.37;14.98;;;;;;;-4.46;68.97;99814.52;1764501;81;21060;-41
2021/12/28 02:47:53;;;;;;;23.87;16.17;;;;;;;-4.46;69.13;99815.84;1764708;80;21060;-41
2021/12/28 02:50:26;;;;;;;24.18;15.65;;;;;;;-4.50;69.46;99806.78;1764452;80;20998;-41
2021/12/28 02:52:53;;;;;;;29.40;16.50;;;;;;;-4.49;69.36;99807.59;1764404;81;22128;-41
2021/12/28 02:55:24;;;;;;;28.30;16.20;;;;;;;-4.46;69.28;99804.45;1764286;80;20938;-41
2021/12/28 02:57:57;;;;;;;27.75;15.60;;;;;;;-4.50;69.14;99825.30;1764545;80;21020;-41
2021/12/28 03:00:37;;;;;;;26.75;15.80;;;;;;;-4.49;69.25;99818.17;1764588;81;20972;-41
2021/12/28 03:03:12;;;;;;;23.80;15.75;;;;;;;-4.46;69.06;99807.91;1764575;80;21029;-41
2021/12/28 03:05:41;;;;;;;26.42;14.85;;;;;;;-4.50;69.12;99827.15;1764666;81;21095;-41
2021/12/28 03:08:08;;;;;;;28.05;15.60;;;;;;;-4.45;69.11;99824.55;1763853;80;20929;-41
2021/12/28 03:10:36;;;;;;;25.10;15.70;;;;;;;-4.78;68.96;99767.88;1747578;80;20976;-41
2021/12/28 03:13:03;;;;;;;28.77;15.10;;;;;;;-4.39;69.12;99821.72;1743364;82;20986;-41
2021/12/28 03:15:31;;;;;;;27.22;17.25;;;;;;;-4.39;69.18;99796.58;1743334;82;21577;-41
2021/12/28 03:17:59;;;;;;;29.25;17.82;;;;;;;-4.38;69.09;99810.61;1743262;82;21017;-41
2021/12/28 03:20:26;;;;;;;29.63;18.65;;;;;;;-4.34;69.12;99807.73;1743118;82;20970;-41
2021/12/28 03:22:54;;;;;;;29.75;19.48;;;;;;;-4.28;69.00;99799.32;1743469;82;21554;-41
2021/12/28 03:25:21;;;;;;;27.17;17.73;;;;;;;-4.28;68.82;99788.21;1743304;82;21078;-41
2021/12/28 03:27:48;;;;;;;29.85;18.67;;;;;;;-4.27;68.64;99783.72;1743182;82;21016;-41
2021/12/28 03:30:16;;;;;;;29.72;18.37;;;;;;;-4.32;68.33;99797.70;1721917;82;21503;-41
2021/12/28 03:32:44;;;;;;;28.42;18.67;;;;;;;-4.37;68.50;99806.12;1743130;82;21009;-40
2021/12/28 03:35:13;;;;;;;31.20;18.45;;;;;;;-4.37;68.51;99804.27;1743193;82;20984;-41
2021/12/28 03:37:41;;;;;;;32.17;19.23;;;;;;;-4.39;68.59;99801.07;1743270;82;20894;-41
2021/12/28 03:40:12;;;;;;;27.05;17.40;;;;;;;-4.36;68.57;99793.17;1743054;82;21064;-41
2021/12/28 03:42:40;;;;;;;27.52;18.20;;;;;;;-4.34;68.46;99790.53;1743301;82;21125;-41
2021/12/28 03:45:08;;;;;;;30.60;17.92;;;;;;;-4.32;68.58;99790.29;1743133;82;20968;-41
2021/12/28 03:47:35;;;;;;;32.88;18.70;;;;;;;-4.28;68.40;99790.86;1743165;82;21013;-41
2021/12/28 03:50:04;;;;;;;27.42;18.05;;;;;;;-4.24;68.08;99791.95;1743251;82;20986;-40
2021/12/28 03:52:32;;;;;;;30.82;17.98;;;;;;;-4.28;68.27;99787.41;1743285;82;21033;-40
2021/12/28 03:54:59;;;;;;;33.13;19.07;;;;;;;-4.28;68.21;99786.89;1743294;82;21806;-40
2021/12/28 03:57:26;;;;;;;34.45;18.90;;;;;;;-4.27;68.45;99791.14;1743220;82;21312;-41
2021/12/28 03:59:52;;;;;;;29.75;18.23;;;;;;;-4.21;68.33;99794.63;1743463;82;20981;-41
2021/12/28 04:02:19;;;;;;;30.75;19.62;;;;;;;-4.17;68.41;99786.45;1743370;82;21044;-41
2021/12/28 04:04:47;;;;;;;31.00;18.95;;;;;;;-4.15;68.14;99777.72;1743171;82;21040;-41
2021/12/28 04:07:18;;;;;;;34.15;18.48;;;;;;;-4.14;68.16;99781.97;1744169;82;21944;-41
2021/12/28 04:09:57;;;;;;;29.32;18.20;;;;;;;-4.15;67.91;99781.16;1761367;80;20953;-41
2021/12/28 04:12:13;;;;;;;31.27;17.57;;;;;;;-4.12;67.90;99779.36;1777146;80;20992;-41
2021/12/28 04:14:40;;;;;;;31.15;18.65;;;;;;;-4.16;67.98;99776.91;1779535;80;21025;-41
2021/12/28 04:17:07;;;;;;;33.35;18.50;;;;;;;-4.12;67.72;99783.84;1779510;80;21033;-41
2021/12/28 04:19:34;;;;;;;29.63;18.00;;;;;;;-4.12;67.70;99775.91;1779888;80;21798;-41
2021/12/28 04:22:00;;;;;;;33.18;18.67;;;;;;;-4.14;67.56;99774.02;1779853;80;21535;-41
2021/12/28 04:24:27;;;;;;;28.12;16.93;;;;;;;-4.19;67.75;99777.43;1779575;80;21374;-41
2021/12/28 04:26:54;;;;;;;31.20;18.15;;;;;;;-4.21;67.73;99775.55;1779665;80;21092;-41
2021/12/28 04:29:21;;;;;;;31.15;18.35;;;;;;;-4.20;67.97;99774.50;1779766;80;21585;-41
2021/12/28 04:31:47;;;;;;;29.50;17.42;;;;;;;-4.19;68.04;99780.59;1780206;80;21122;-41
2021/12/28 04:34:13;;;;;;;24.75;16.52;;;;;;;-4.16;67.97;99783.53;1779624;80;20945;-41
2021/12/28 04:36:41;;;;;;;31.40;19.02;;;;;;;-4.08;67.77;99792.88;1779604;80;20980;-41
2021/12/28 04:39:07;;;;;;;29.92;18.02;;;;;;;-4.05;67.86;99790.52;1779692;80;20997;-41
2021/12/28 04:41:35;;;;;;;31.10;18.80;;;;;;;-3.94;67.56;99795.37;1775617;80;21489;-41
2021/12/28 04:44:03;;;;;;;28.73;18.30;;;;;;;-3.97;67.04;99804.60;1764358;81;21868;-41
2021/12/28 04:46:30;;;;;;;31.23;17.77;;;;;;;-4.01;67.16;99806.69;1769432;80;21032;-41
2021/12/28 04:48:58;;;;;;;27.37;16.52;;;;;;;-3.98;66.91;99804.35;1779658;80;21011;-41
2021/12/28 04:51:25;;;;;;;30.85;17.17;;;;;;;-4.00;66.83;99802.47;1774554;80;21512;-41
2021/12/28 04:53:54;;;;;;;26.05;17.17;;;;;;;-3.98;66.49;99793.77;1779865;80;20985;-41
2021/12/28 04:56:21;;;;;;;31.17;17.55;;;;;;;-4.00;66.46;99795.84;1779666;80;21913;-41
2021/12/28 04:58:48;;;;;;;30.05;17.23;;;;;;;-4.07;66.12;99791.31;1779490;80;20961;-41
2021/12/28 05:01:17;;;;;;;26.73;17.07;;;;;;;-4.11;66.52;99795.48;1779566;80;20918;-41
2021/12/28 05:03:44;;;;;;;28.40;17.60;;;;;;;-4.14;66.63;99793.36;1779709;80;20959;-41
2021/12/28 05:06:10;;;;;;;33.02;19.25;;;;;;;-4.13;66.67;99794.16;1779772;80;21032;-41
2021/12/28 05:08:40;;;;;;;29.35;18.30;;;;;;;-4.13;66.94;99802.91;1781014;80;20993;-41
2021/12/28 05:11:06;;;;;;;29.45;17.92;;;;;;;-4.11;67.06;99804.75;1751093;82;21602;-41
2021/12/28 05:13:33;;;;;;;34.58;19.52;;;;;;;-4.00;67.28;99797.17;1710214;83;21016;-41
2021/12/28 05:16:00;;;;;;;30.08;18.60;;;;;;;-3.86;67.06;99781.64;1745994;82;21079;-41
2021/12/28 05:18:27;;;;;;;31.23;18.73;;;;;;;-3.86;66.78;99772.37;1715049;83;21097;-41
2021/12/28 05:20:53;;;;;;;30.62;18.70;;;;;;;-3.88;66.39;99771.05;1751218;81;21755;-41
2021/12/28 05:23:20;;;;;;;32.48;19.12;;;;;;;-3.90;66.60;99775.78;1714802;83;20992;-41
2021/12/28 05:25:47;;;;;;;33.35;20.08;;;;;;;-3.84;66.58;99777.42;1750986;82;21091;-41
2021/12/28 05:28:14;;;;;;;29.67;19.35;;;;;;;-3.78;66.62;99772.44;1714981;83;21069;-41
2021/12/28 05:30:41;;;;;;;32.08;19.02;;;;;;;-3.68;66.39;99768.53;1751034;82;21040;-41
2021/12/28 05:33:07;;;;;;;30.02;18.65;;;;;;;-3.59;66.14;99766.99;1715014;83;21155;-41
2021/12/28 05:35:35;;;;;;;29.07;17.62;;;;;;;-3.63;65.81;99769.89;1751126;82;21518;-41
2021/12/28 05:38:02;;;;;;;31.45;18.17;;;;;;;-3.64;65.84;99779.69;1715106;83;20997;-41
2021/12/28 05:40:28;;;;;;;28.95;17.98;;;;;;;-3.57;65.65;99780.77;1751038;81;21286;-41
2021/12/28 05:42:55;;;;;;;29.85;18.67;;;;;;;-3.63;65.29;99778.61;1714967;83;21048;-41
2021/12/28 05:45:21;;;;;;;27.67;18.27;;;;;;;-3.63;65.36;99777.84;1750974;82;21110;-42
2021/12/28 05:47:50;;;;;;;29.87;18.32;;;;;;;-3.61;65.48;99783.14;1715137;83;21870;-41
2021/12/28 05:50:17;;;;;;;30.97;18.67;;;;;;;-3.55;65.31;99779.99;1750927;81;20968;-41
2021/12/28 05:52:44;;;;;;;29.40;18.60;;;;;;;-3.57;65.24;99777.59;1714955;83;21057;-42
2021/12/28 05:55:11;;;;;;;30.77;18.92;;;;;;;-3.56;65.58;99788.99;1751380;82;21457;-41
2021/12/28 05:57:38;;;;;;;33.65;19.07;;;;;;;-3.50;65.51;99787.97;1715144;83;21158;-41
2021/12/28 06:00:07;;;;;;;27.07;17.92;;;;;;;-3.48;65.39;99791.15;1751092;82;21084;-41
2021/12/28 06:02:35;;;;;;;31.48;18.70;;;;;;;-3.46;65.32;99797.00;1715309;83;20985;-41
2021/12/28 06:05:03;;;;;;;29.23;17.95;;;;;;;-3.46;64.97;99793.03;1751296;82;20972;-41
2021/12/28 06:07:30;;;;;;;28.10;17.65;;;;;;;-3.49;64.94;99800.70;1751092;82;21552;-41
2021/12/28 06:09:57;;;;;;;28.05;18.12;;;;;;;-3.52;64.72;99798.02;1707626;84;22049;-42
2021/12/28 06:12:24;;;;;;;28.02;17.55;;;;;;;-3.55;64.99;99807.82;1773976;80;21025;-41
2021/12/28 06:14:52;;;;;;;31.15;18.37;;;;;;;-3.50;64.78;99801.22;1773913;80;21021;-41
2021/12/28 06:17:19;;;;;;;26.40;17.85;;;;;;;-3.53;64.61;99803.84;1774022;80;21581;-41
2021/12/28 06:19:46;;;;;;;27.77;17.50;;;;;;;-3.62;64.52;99801.93;1773979;80;21080;-41
2021/12/28 06:22:13;;;;;;;26.20;17.73;;;;;;;-3.65;64.67;99790.53;1773955;80;21139;-41
2021/12/28 06:24:40;;;;;;;27.75;17.90;;;;;;;-3.69;64.55;99792.90;1773830;80;21021;-41
2021/12/28 06:27:07;;;;;;;28.57;17.15;;;;;;;-3.70;64.61;99799.25;1774012;80;21008;-41
2021/12/28 06:29:34;;;;;;;25.68;17.20;;;;;;;-3.73;64.51;99797.64;1773925;80;20968;-41
2021/12/28 06:32:01;;;;;;;29.27;16.87;;;;;;;-3.77;64.62;99804.48;1774006;80;21485;-41
2021/12/28 06:34:27;;;;;;;29.92;18.62;;;;;;;-3.78;64.35;99798.93;1773817;80;21145;-41
2021/12/28 06:36:54;;;;;;;28.05;16.70;;;;;;;-3.87;64.28;99801.78;1773832;80;20993;-41
2021/12/28 06:39:20;;;;;;;28.35;18.05;;;;;;;-3.96;64.46;99804.88;1773943;80;21032;-41
2021/12/28 06:41:47;;;;;;;29.05;17.30;;;;;;;-4.02;64.59;99813.05;1773870;80;21092;-44
2021/12/28 06:44:14;;;;;;;27.17;17.57;;;;;;;-4.03;64.68;99817.55;1773917;80;21037;-43
2021/12/28 06:46:41;;;;;;;29.20;18.30;;;;;;;-3.95;64.72;99821.05;1773967;80;21136;-41
2021/12/28 06:49:08;;;;;;;28.10;17.67;;;;;;;-3.97;64.27;99810.45;1773743;80;20918;-41
2021/12/28 06:51:35;;;;;;;29.77;18.42;;;;;;;-4.04;64.39;99802.70;1773971;80;21522;-41
2021/12/28 06:54:01;;;;;;;28.47;17.75;;;;;;;-4.02;64.55;99797.94;1774019;80;21456;-41
2021/12/28 06:56:28;;;;;;;30.25;17.57;;;;;;;-4.04;64.81;99808.00;1773905;80;21737;-41
2021/12/28 06:58:55;;;;;;;30.70;17.52;;;;;;;-3.97;64.73;99809.89;1773893;80;21121;-41
2021/12/28 07:01:22;;;;;;;27.85;17.98;;;;;;;-3.99;64.57;99810.70;1773938;80;20934;-41
2021/12/28 07:03:50;;;;;;;30.37;17.57;;;;;;;-3.98;64.56;99808.84;1773923;80;21004;-41
2021/12/28 07:06:17;;;;;;;30.88;18.42;;;;;;;-3.97;64.41;99821.05;1773960;80;21088;-41
2021/12/28 07:08:44;;;;;;;27.10;17.95;;;;;;;-3.98;64.54;99814.95;1773970;80;21029;-41
2021/12/28 07:11:11;;;;;;;30.20;18.75;;;;;;;-3.97;64.31;99803.27;1773903;80;21936;-42
2021/12/28 07:13:37;;;;;;;28.15;17.30;;;;;;;-4.02;64.38;99803.23;1773919;80;21629;-41
2021/12/28 07:16:04;;;;;;;28.32;18.55;;;;;;;-4.01;64.27;99811.46;1773920;80;20977;-41
2021/12/28 07:18:31;;;;;;;33.42;18.70;;;;;;;-4.02;64.32;99803.23;1773794;80;21025;-41
2021/12/28 07:20:58;;;;;;;29.35;18.62;;;;;;;-4.00;64.38;99797.70;1774017;80;21040;-41
2021/12/28 07:23:25;;;;;;;29.85;18.35;;;;;;;-3.96;64.23;99803.55;1773754;80;21133;-41
2021/12/28 07:25:53;;;;;;;28.80;18.48;;;;;;;-3.90;64.08;99800.95;1773810;80;20945;-40
2021/12/28 07:28:22;;;;;;;;;;;;;;;-3.91;63.81;99790.08;1776467;80;20949;-41
2021/12/28 07:30:49;;;;;;;31.30;17.57;;;;;;;-3.96;63.92;99787.66;1774158;80;20196;-41
2021/12/28 07:33:17;;;;;;;31.27;18.25;;;;;;;-4.02;64.22;99778.63;1773950;80;21516;-41
2021/12/28 07:35:44;;;;;;;31.77;18.65;;;;;;;-3.98;64.11;99777.07;1774049;80;21188;-41
2021/12/28 07:38:11;;;;;;;30.05;17.77;;;;;;;-3.96;63.95;99778.40;1773906;80;21021;-41
2021/12/28 07:40:37;;;;;;;31.70;17.62;;;;;;;-3.96;64.03;99769.66;1773938;80;20977;-40
2021/12/28 07:43:04;;;;;;;30.27;17.60;;;;;;;-3.91;63.93;99768.36;1774034;80;21033;-41
2021/12/28 07:45:31;;;;;;;30.92;18.62;;;;;;;-3.86;63.83;99774.22;1773850;80;21524;-41
2021/12/28 07:47:58;;;;;;;28.47;17.50;;;;;;;-3.84;63.54;99782.72;1773885;80;21142;-41
2021/12/28 07:50:25;;;;;;;32.45;18.90;;;;;;;-3.82;63.32;99781.92;1773914;80;21562;-41
2021/12/28 07:52:52;;;;;;;30.62;18.55;;;;;;;-3.87;63.00;99780.59;1773965;80;21033;-41
2021/12/28 07:55:19;;;;;;;31.30;18.42;;;;;;;-3.92;63.35;99776.58;1773805;80;21069;-41
2021/12/28 07:57:45;;;;;;;28.23;18.10;;;;;;;-3.90;63.22;99789.03;1773967;80;20998;-41
2021/12/28 08:00:17;;;;;;;28.95;17.75;;;;;;;-3.91;63.17;99782.93;1773883;80;21150;-41
2021/12/28 08:02:46;;;;;;;29.75;17.85;;;;;;;-3.87;63.27;99775.30;1773834;80;20883;-41
2021/12/28 08:05:13;;;;;;;34.03;18.12;;;;;;;-3.81;63.20;99772.93;1773777;80;20989;-41
2021/12/28 08:07:40;;;;;;;32.48;19.07;;;;;;;-3.75;63.24;99771.92;1773885;80;21004;-41
2021/12/28 08:10:10;;;;;;;28.42;18.32;;;;;;;-3.68;63.04;99769.86;1780665;80;20933;-41
2021/12/28 08:12:39;;;;;;;26.93;17.85;;;;;;;-3.73;63.03;99761.88;1782119;80;21001;-41
2021/12/28 08:15:07;;;;;;;31.00;18.48;;;;;;;-3.70;62.94;99767.98;1782111;80;20937;-41
2021/12/28 08:17:34;;;;;;;31.10;19.82;;;;;;;-3.77;62.83;99768.19;1782166;80;21057;-41
2021/12/28 08:20:01;;;;;;;32.78;20.12;;;;;;;-3.86;62.97;99761.78;1782180;80;20973;-41
2021/12/28 08:22:27;;;;;;;30.27;19.85;;;;;;;-3.84;62.71;99763.66;1782167;80;21087;-41
2021/12/28 08:24:55;;;;;;;30.08;20.15;;;;;;;-3.89;62.91;99757.52;1782170;80;21257;-41
2021/12/28 08:27:22;;;;;;;31.33;18.82;;;;;;;-3.90;63.14;99755.92;1781980;80;20941;-41
2021/12/28 08:29:49;;;;;;;32.90;21.02;;;;;;;-3.89;62.99;99746.93;1782031;80;21007;-41
2021/12/28 08:32:15;;;;;;;33.28;20.05;;;;;;;-3.97;63.26;99742.37;1782441;80;21472;-41
2021/12/28 08:34:42;;;;;;;30.17;19.92;;;;;;;-3.95;63.24;99744.77;1782386;80;21025;-42
2021/12/28 08:37:09;;;;;;;32.15;19.30;;;;;;;-3.92;63.28;99748.78;1782274;80;21869;-41
2021/12/28 08:39:37;;;;;;;31.33;20.30;;;;;;;-3.90;63.26;99746.12;1782080;80;20937;-42
2021/12/28 08:42:05;;;;;;;29.80;19.10;;;;;;;-3.85;63.38;99746.69;1782156;80;21059;-41
2021/12/28 08:44:31;;;;;;;30.55;18.87;;;;;;;-3.81;62.71;99736.65;1782051;80;20933;-41
2021/12/28 08:46:58;;;;;;;30.55;18.35;;;;;;;-3.73;62.37;99739.36;1782214;80;21032;-41
2021/12/28 08:49:25;;;;;;;33.23;19.10;;;;;;;-3.81;62.05;99734.00;1779733;80;21813;-41
2021/12/28 08:51:53;;;;;;;33.00;19.25;;;;;;;-3.86;61.98;99730.52;1769143;81;21016;-41
2021/12/28 08:54:20;;;;;;;26.65;17.27;;;;;;;-3.87;62.24;99730.27;1769164;81;21656;-42
2021/12/28 08:56:47;;;;;;;30.35;17.73;;;;;;;-3.86;62.31;99723.38;1769124;81;20954;-41
2021/12/28 08:59:14;;;;;;;30.00;17.48;;;;;;;-3.85;62.06;99715.70;1769141;81;21077;-41
2021/12/28 09:01:42;;;;;;;30.72;18.17;;;;;;;-3.83;61.78;99710.16;1769301;81;21862;-41
2021/12/28 09:04:09;;;;;;;26.80;16.87;;;;;;;-3.78;61.71;99713.64;1769116;81;20906;-42
2021/12/28 09:06:35;;;;;;;32.15;17.60;;;;;;;-3.79;61.42;99709.39;1769261;80;21522;-41
2021/12/28 09:09:03;;;;;;;28.52;17.80;;;;;;;-3.76;61.71;99713.36;1770122;80;21613;-41
2021/12/28 09:11:31;;;;;;;20.67;12.97;;;;;;;-3.76;61.46;99713.36;1779882;80;20902;-41
2021/12/28 09:13:58;;;;;;;30.48;17.62;;;;;;;-3.69;61.38;99709.45;1779908;80;21128;-41
2021/12/28 09:16:24;;;;;;;32.17;18.02;;;;;;;-3.72;60.65;99707.81;1779518;80;21008;-41
2021/12/28 09:18:51;;;;;;;28.07;17.80;;;;;;;-3.87;60.63;99710.41;1779786;80;21066;-41
2021/12/28 09:21:18;;;;;;;33.30;18.80;;;;;;;-3.88;60.93;99700.34;1710402;83;21018;-42
2021/12/28 09:23:44;;;;;;;27.05;17.48;;;;;;;-3.87;61.17;99697.94;1779722;80;21072;-41
2021/12/28 09:26:11;;;;;;;31.50;18.35;;;;;;;-3.87;60.64;99686.02;1710466;83;21164;-41
2021/12/28 09:28:38;;;;;;;32.30;19.23;;;;;;;-3.90;60.50;99681.24;1779747;80;21076;-41
2021/12/28 09:31:06;;;;;;;28.30;17.73;;;;;;;-3.90;60.73;99679.13;1779707;80;20962;-41
2021/12/28 09:33:33;;;;;;;32.03;18.85;;;;;;;-3.91;60.56;99678.84;1710550;83;21072;-41
2021/12/28 09:36:01;;;;;;;31.70;18.77;;;;;;;-3.91;60.67;99674.34;1779935;80;21092;-41
2021/12/28 09:38:28;;;;;;;30.08;18.10;;;;;;;-3.91;60.67;99675.67;1779651;80;21344;-41
2021/12/28 09:40:55;;;;;;;30.02;18.52;;;;;;;-3.86;60.28;99669.60;1710408;83;21033;-41
2021/12/28 09:43:23;;;;;;;31.25;18.35;;;;;;;-3.85;59.78;99670.67;1779771;80;21032;-41
2021/12/28 09:45:49;;;;;;;29.42;17.90;;;;;;;-3.78;60.26;99673.11;1779819;80;21567;-41
2021/12/28 09:48:16;;;;;;;29.12;17.85;;;;;;;-3.72;60.26;99674.17;1710446;83;21061;-41
2021/12/28 09:50:43;;;;;;;27.20;17.60;;;;;;;-3.75;60.19;99680.53;1779818;80;21087;-41
2021/12/28 09:53:12;;;;;;;31.85;18.82;;;;;;;-3.75;59.88;99668.08;1779692;80;21001;-41
2021/12/28 09:55:38;;;;;;;31.68;19.05;;;;;;;-3.75;59.70;99675.23;1710891;83;21044;-41
2021/12/28 09:58:05;;;;;;;27.48;18.35;;;;;;;-3.80;59.98;99665.94;1779801;80;21072;-41
2021/12/28 10:00:32;;;;;;;30.25;18.48;;;;;;;-3.77;59.42;99674.67;1779892;80;21021;-42
2021/12/28 10:02:59;;;;;;;31.85;18.45;;;;;;;-3.79;60.03;99671.50;1779823;80;21958;-41
2021/12/28 10:05:26;;;;;;;32.35;18.60;;;;;;;-3.77;59.62;99672.03;1779696;80;20965;-42
2021/12/28 10:07:56;;;;;;;30.35;17.92;;;;;;;-3.75;59.26;99672.05;1710553;83;21057;-41
2021/12/28 10:10:28;;;;;;;26.33;18.00;;;;;;;-3.74;59.16;99671.00;1768532;80;21030;-41
2021/12/28 10:13:00;;;;;;;30.10;17.73;;;;;;;-3.76;59.10;99665.68;1763173;81;21551;-41
2021/12/28 10:15:37;;;;;;;38.35;18.90;;;;;;;-3.80;59.05;99661.95;1762797;81;21581;-42
2021/12/28 10:18:07;;;;;;;28.92;18.40;;;;;;;-3.74;59.42;99659.61;1762904;81;21097;-41
2021/12/28 10:20:45;;;;;;;37.73;19.30;;;;;;;-3.74;59.09;99658.28;1763031;81;21042;-41
2021/12/28 10:23:15;;;;;;;31.25;19.02;;;;;;;-3.71;59.23;99660.41;1763007;81;21084;-41
2021/12/28 10:25:48;;;;;;;31.65;19.07;;;;;;;-3.71;58.48;99646.64;1687749;85;20983;-42
2021/12/28 10:28:19;;;;;;;30.70;18.37;;;;;;;-3.70;58.69;99641.61;1761941;81;21793;-41
2021/12/28 10:30:50;;;;;;;32.17;19.55;;;;;;;-3.65;58.51;99639.51;1687291;84;21018;-42
2021/12/28 10:33:22;;;;;;;28.02;17.57;;;;;;;-3.66;58.06;99632.61;1761220;81;21535;-41
2021/12/28 10:35:57;;;;;;;34.25;18.15;;;;;;;-3.73;58.42;99637.37;1687709;85;21025;-42
2021/12/28 10:38:33;;;;;;;32.93;18.45;;;;;;;-3.68;58.93;99639.48;1762215;80;21560;-41
2021/12/28 10:41:03;;;;;;;29.23;18.85;;;;;;;-3.58;58.42;99648.80;1762624;81;21536;-41
2021/12/28 10:43:33;;;;;;;31.50;18.57;;;;;;;-3.58;57.80;99649.32;1684775;84;21077;-41
2021/12/28 10:46:06;;;;;;;30.72;18.00;;;;;;;-3.57;57.84;99649.59;1762809;80;21081;-41
2021/12/28 10:48:47;;;;;;;30.52;17.77;;;;;;;-3.56;57.87;99652.00;1763162;81;21583;-41
2021/12/28 10:51:21;;;;;;;30.20;17.95;;;;;;;-3.57;57.31;99644.30;1687641;85;21029;-41
2021/12/28 10:56:31;;;;;;;31.37;18.47;;;;;;;-3.48;56.60;99644.06;1773972;80;20930;-41
2021/12/28 10:58:58;;;;;;;30.52;18.85;;;;;;;-3.55;56.51;99650.15;1754993;80;20970;-41
2021/12/28 11:01:29;;;;;;;30.17;18.07;;;;;;;-3.53;57.04;99650.14;1735080;82;21061;-41
2021/12/28 11:04:04;;;;;;;31.05;18.95;;;;;;;-3.42;57.25;99648.33;1734858;82;21018;-41
2021/12/28 11:06:35;;;;;;;31.15;17.98;;;;;;;-3.35;56.29;99642.79;1734908;82;21846;-41
2021/12/28 11:09:11;;;;;;;32.90;18.15;;;;;;;-3.32;55.96;99639.08;1735301;80;20929;-41
2021/12/28 11:11:40;;;;;;;29.27;17.40;;;;;;;-3.37;55.35;99632.44;1743255;82;21280;-41
2021/12/28 11:14:11;;;;;;;29.02;17.77;;;;;;;-3.42;55.00;99640.38;1743647;82;21088;-41
2021/12/28 11:16:38;;;;;;;30.57;18.27;;;;;;;-3.44;55.32;99633.76;1742970;82;21437;-42
2021/12/28 11:19:09;;;;;;;29.20;17.82;;;;;;;-3.48;55.27;99638.76;1743490;82;20950;-42
2021/12/28 11:21:40;;;;;;;31.00;17.55;;;;;;;-3.53;55.77;99638.22;1743318;82;20969;-41
2021/12/28 11:24:13;;;;;;;29.92;17.40;;;;;;;-3.52;55.94;99636.36;1743576;82;21040;-41
2021/12/28 11:26:43;;;;;;;28.30;16.82;;;;;;;-3.44;55.89;99629.78;1743214;82;21000;-42
2021/12/28 11:29:23;;;;;;;26.97;17.92;;;;;;;-3.35;55.90;99625.03;1743315;82;20958;-41